Portada
METAR-TAF:

METAR-TAF

Aeroports :

Pointe-Noire, Congo

latitud: 04-49S, longitud: 011-54E, altitud: 17 m

Observació

L'informe es va fer fa 56 minuts, a les 03:00 UTC
Vent 1 kt del Est/Nord-Est
Temperatura 24°C
Humitat 100%
Pressió 1009 hPa
Visibilitat: 7000 m
Escasses núvols a una alçada de 1000 ft
Cel ennuvolat a una alçada de 2300 ft

METAR: FCPP 210300Z 06001KT 7000 FEW010 BKN023 24/24 Q1009 NOSIG

Hora: 04:56 (03:56 UTC)

Pronòstic

L'informe es va fer fa 4 hores i 56 minuts, a les 23:00 UTC
Pronòstic vàlid del 21 a les 00 UTC al 21 a les 24 UTC
Vent 4 kt del Sud
Visibilitat: 7000 m
Escasses núvols a una alçada de 1000 ft
Cel ennuvolat a una alçada de 2300 ft
Evolucionant progressivament
l' 21 a les 01 UTC al 21 a les 03 UTC
Núvols disperses a una alçada de 2300 ft
Probabilitat 30%
l' 21 a les 04 UTC al 21 a les 06 UTC
tempesta

TAF: FCPP 202300Z 2100/2124 18004KT 7000 FEW010 BKN023 BECMG 2101/2103 SCT023 FEW026C PROB30 2104/2106 TS

Observacions i pronòstics meteorològics de més de 4000 aeroports (METAR i TAF).

Les estacions disponibles són els punts grocs i vermells al mapa.

Posi el ratolí al punt desitjat per veure el nom de l'estació.

Feu clic per veure les observacions i els pronòstics meteorològics.

Per canviar el mapa: feu clic els botons verds amb una creu de color negre per apropar; al botó verd amb un guió per allunyar la imatge; o en les fletxes verdes per a mapes adjacents.


METAR-TAF: